ANA642 RJBB-RJFM
Flight info
| Callsign | ANA642 |
|---|---|
| Flight time | N/A |
| Altitude | 32000 |
| Route | OBLUR Y236 VEXOT Y756 KRE Y232 SIROK Y402 RYUGU |
| Aircraft | A388/J-SADE2E3FGHIJ3J4J5M1RWXY/LB1D1 |
Departure
| Time | N/A |
|---|---|
| Airport | Kansai International Airport (RJBB) |
Arrival
| Time | 2026-05-03 20:34 |
|---|---|
| Airport | Miyazaki Airport (RJFM) |
| Time | Latitude | Longitude | Altitude | Speed | Heading |
|---|---|---|---|---|---|
| 2026-05-03 20:15 | 32.59113 | 132.65633 | 24560 ft | 362 kts | 226° |
| 2026-05-03 20:15 | 32.57253 | 132.63662 | 24000 ft | 356 kts | 226° |
| 2026-05-03 20:15 | 32.55417 | 132.61715 | 23381 ft | 352 kts | 226° |
| 2026-05-03 20:15 | 32.53594 | 132.59781 | 22502 ft | 352 kts | 226° |
| 2026-05-03 20:16 | 32.51782 | 132.57861 | 21963 ft | 344 kts | 226° |
| 2026-05-03 20:16 | 32.50019 | 132.55999 | 21534 ft | 334 kts | 226° |
| 2026-05-03 20:16 | 32.48290 | 132.54171 | 20931 ft | 330 kts | 226° |
| 2026-05-03 20:16 | 32.46591 | 132.52373 | 20378 ft | 326 kts | 226° |
| 2026-05-03 20:17 | 32.44912 | 132.50596 | 19809 ft | 322 kts | 226° |
| 2026-05-03 20:17 | 32.43244 | 132.48832 | 19235 ft | 319 kts | 226° |
| 2026-05-03 20:17 | 32.41596 | 132.47092 | 18674 ft | 317 kts | 226° |
| 2026-05-03 20:17 | 32.39953 | 132.45356 | 18108 ft | 314 kts | 226° |
| 2026-05-03 20:18 | 32.38339 | 132.43654 | 17509 ft | 311 kts | 226° |
| 2026-05-03 20:18 | 32.36737 | 132.41965 | 16953 ft | 306 kts | 226° |
| 2026-05-03 20:18 | 32.35157 | 132.40300 | 16445 ft | 302 kts | 226° |
| 2026-05-03 20:18 | 32.33594 | 132.38653 | 15869 ft | 300 kts | 226° |
| 2026-05-03 20:19 | 32.32043 | 132.37021 | 15359 ft | 296 kts | 226° |
| 2026-05-03 20:19 | 32.30514 | 132.35411 | 14833 ft | 293 kts | 226° |
| 2026-05-03 20:19 | 32.28992 | 132.33809 | 14319 ft | 291 kts | 226° |
| 2026-05-03 20:19 | 32.27490 | 132.32229 | 13808 ft | 289 kts | 226° |
| 2026-05-03 20:20 | 32.26012 | 132.30676 | 13278 ft | 287 kts | 225° |
| 2026-05-03 20:20 | 32.24488 | 132.29073 | 12907 ft | 293 kts | 225° |
| 2026-05-03 20:20 | 32.22973 | 132.27480 | 12431 ft | 296 kts | 225° |
| 2026-05-03 20:20 | 32.21930 | 132.26386 | 12086 ft | 296 kts | 225° |
| 2026-05-03 20:21 | 32.20013 | 132.24160 | 11420 ft | 288 kts | 232° |
| 2026-05-03 20:21 | 32.18712 | 132.22384 | 10932 ft | 284 kts | 232° |
| 2026-05-03 20:21 | 32.17418 | 132.20634 | 10437 ft | 281 kts | 232° |
| 2026-05-03 20:21 | 32.16552 | 132.19468 | 10278 ft | 275 kts | 232° |
| 2026-05-03 20:22 | 32.15320 | 132.17818 | 10159 ft | 261 kts | 232° |
| 2026-05-03 20:22 | 32.14151 | 132.16252 | 10043 ft | 249 kts | 232° |
| 2026-05-03 20:22 | 32.13016 | 132.14727 | 9861 ft | 246 kts | 232° |
| 2026-05-03 20:22 | 32.11896 | 132.13221 | 9734 ft | 246 kts | 232° |
| 2026-05-03 20:23 | 32.10758 | 132.11690 | 9433 ft | 248 kts | 232° |
| 2026-05-03 20:23 | 32.09630 | 132.10176 | 9125 ft | 244 kts | 232° |
| 2026-05-03 20:23 | 32.08520 | 132.08689 | 8823 ft | 239 kts | 232° |
| 2026-05-03 20:23 | 32.07428 | 132.07228 | 8524 ft | 235 kts | 233° |
| 2026-05-03 20:24 | 32.06374 | 132.05815 | 8247 ft | 231 kts | 233° |
| 2026-05-03 20:24 | 32.05331 | 132.04394 | 7941 ft | 226 kts | 236° |
| 2026-05-03 20:24 | 32.04464 | 132.02853 | 7658 ft | 221 kts | 244° |
| 2026-05-03 20:24 | 32.03834 | 132.01222 | 7385 ft | 217 kts | 250° |
| 2026-05-03 20:25 | 32.03298 | 131.99550 | 7101 ft | 218 kts | 250° |
| 2026-05-03 20:25 | 32.02743 | 131.97891 | 6844 ft | 218 kts | 250° |
| 2026-05-03 20:25 | 32.02181 | 131.96236 | 6563 ft | 217 kts | 251° |
| 2026-05-03 20:25 | 32.01619 | 131.94581 | 6288 ft | 217 kts | 251° |
| 2026-05-03 20:26 | 32.01061 | 131.92933 | 5994 ft | 217 kts | 251° |
| 2026-05-03 20:26 | 32.00507 | 131.91293 | 5707 ft | 219 kts | 251° |
| 2026-05-03 20:26 | 31.99948 | 131.89634 | 5447 ft | 217 kts | 251° |
| 2026-05-03 20:26 | 31.99386 | 131.87974 | 5177 ft | 219 kts | 251° |
| 2026-05-03 20:27 | 31.98822 | 131.86311 | 4887 ft | 217 kts | 251° |
| 2026-05-03 20:27 | 31.98258 | 131.84652 | 4602 ft | 217 kts | 252° |
| 2026-05-03 20:27 | 31.97695 | 131.82992 | 4316 ft | 218 kts | 252° |
| 2026-05-03 20:27 | 31.97127 | 131.81311 | 4036 ft | 220 kts | 252° |
| 2026-05-03 20:28 | 31.96562 | 131.79639 | 3771 ft | 222 kts | 252° |
| 2026-05-03 20:28 | 31.95989 | 131.77948 | 3464 ft | 223 kts | 252° |
| 2026-05-03 20:28 | 31.95413 | 131.76255 | 3174 ft | 223 kts | 252° |
| 2026-05-03 20:28 | 31.94838 | 131.74559 | 2888 ft | 222 kts | 252° |
| 2026-05-03 20:29 | 31.94280 | 131.72913 | 2576 ft | 225 kts | 252° |
| 2026-05-03 20:29 | 31.93703 | 131.71211 | 2304 ft | 224 kts | 251° |
| 2026-05-03 20:29 | 31.93128 | 131.69530 | 2063 ft | 229 kts | 249° |
| 2026-05-03 20:29 | 31.92222 | 131.67921 | 2013 ft | 243 kts | 234° |
| 2026-05-03 20:30 | 31.91138 | 131.66366 | 2003 ft | 246 kts | 234° |
| 2026-05-03 20:30 | 31.90054 | 131.64806 | 2007 ft | 243 kts | 237° |
| 2026-05-03 20:30 | 31.89262 | 131.63141 | 2008 ft | 223 kts | 254° |
| 2026-05-03 20:30 | 31.88931 | 131.61448 | 2004 ft | 200 kts | 263° |
| 2026-05-03 20:31 | 31.88789 | 131.59955 | 2010 ft | 172 kts | 267° |
| 2026-05-03 20:31 | 31.88704 | 131.58702 | 2010 ft | 138 kts | 267° |
| 2026-05-03 20:31 | 31.88625 | 131.57645 | 1906 ft | 129 kts | 269° |
| 2026-05-03 20:31 | 31.88555 | 131.56612 | 1735 ft | 128 kts | 269° |
| 2026-05-03 20:32 | 31.88478 | 131.55580 | 1578 ft | 125 kts | 266° |
| 2026-05-03 20:32 | 31.88405 | 131.54555 | 1403 ft | 131 kts | 265° |
| 2026-05-03 20:32 | 31.88329 | 131.53482 | 1232 ft | 131 kts | 265° |
| 2026-05-03 20:32 | 31.88258 | 131.52431 | 1058 ft | 127 kts | 266° |
| 2026-05-03 20:33 | 31.88182 | 131.51409 | 891 ft | 133 kts | 263° |
| 2026-05-03 20:33 | 31.88099 | 131.50318 | 721 ft | 137 kts | 266° |
| 2026-05-03 20:33 | 31.88028 | 131.49218 | 555 ft | 134 kts | 263° |
| 2026-05-03 20:33 | 31.87932 | 131.48126 | 372 ft | 132 kts | 264° |
| 2026-05-03 20:34 | 31.87868 | 131.47101 | 231 ft | 127 kts | 263° |
| 2026-05-03 20:34 | 31.87800 | 131.46093 | 82 ft | 122 kts | 262° |
| 2026-05-03 20:34 | 31.87734 | 131.45204 | 38 ft | 88 kts | 266° |
| 2026-05-03 20:34 | 31.87700 | 131.44736 | 38 ft | 36 kts | 265° |
| 2026-05-03 20:35 | 31.87691 | 131.44632 | 38 ft | 3 kts | 248° |
| 2026-05-03 20:35 | 31.87652 | 131.44591 | 37 ft | 11 kts | 193° |
| 2026-05-03 20:35 | 31.87558 | 131.44588 | 38 ft | 8 kts | 191° |
| 2026-05-03 20:35 | 31.87521 | 131.44539 | 38 ft | 11 kts | 253° |
| 2026-05-03 20:36 | 31.87494 | 131.44505 | 38 ft | 9 kts | 194° |
| 2026-05-03 20:36 | 31.87433 | 131.44506 | 38 ft | 0 kts | 182° |
| 2026-05-03 20:36 | 31.87388 | 131.44507 | 38 ft | 4 kts | 172° |
| 2026-05-03 20:36 | 31.87386 | 131.44507 | 38 ft | 0 kts | 172° |